createdAt,value
2022-11-02T00:02:18.499Z,76.73
2022-11-02T00:04:46.136Z,76.55
2022-11-02T00:07:13.652Z,76.47
2022-11-02T00:09:41.000Z,76.33
2022-11-02T00:12:08.584Z,76.34
2022-11-02T00:14:36.232Z,76.44
2022-11-02T00:17:04.007Z,76.58
2022-11-02T00:19:31.504Z,76.68
2022-11-02T00:22:01.044Z,76.87
2022-11-02T00:24:31.990Z,76.82
2022-11-02T00:26:59.738Z,76.88
2022-11-02T00:29:33.456Z,76.80
2022-11-02T00:31:57.614Z,76.81
2022-11-02T00:34:25.339Z,76.83
2022-11-02T00:36:55.610Z,76.65
2022-11-02T00:39:23.569Z,76.71
2022-11-02T00:41:51.321Z,76.71
2022-11-02T00:44:19.222Z,76.89
2022-11-02T00:46:47.065Z,76.87
2022-11-02T00:49:14.891Z,76.89
2022-11-02T00:51:43.837Z,76.92
2022-11-02T00:54:13.066Z,76.83
2022-11-02T00:56:40.691Z,77.01
2022-11-02T00:59:08.406Z,77.04
2022-11-02T01:01:36.076Z,76.96
2022-11-02T01:04:03.836Z,76.89
2022-11-02T01:06:32.224Z,76.84
2022-11-02T01:09:03.596Z,76.81
2022-11-02T01:11:36.630Z,76.81
2022-11-02T01:14:07.837Z,76.86
2022-11-02T01:16:41.073Z,76.78
2022-11-02T01:19:10.950Z,76.66
2022-11-02T01:21:44.038Z,76.52
2022-11-02T01:24:14.454Z,76.50
2022-11-02T01:26:42.860Z,76.53
2022-11-02T01:29:13.727Z,76.54
2022-11-02T01:31:41.132Z,76.54
2022-11-02T01:34:08.568Z,76.59
2022-11-02T01:36:36.344Z,76.58
2022-11-02T01:39:04.000Z,76.71
2022-11-02T01:41:31.707Z,76.80
2022-11-02T01:44:04.344Z,76.81
2022-11-02T01:46:42.146Z,76.97
2022-11-02T01:49:14.339Z,77.21
2022-11-02T01:51:53.231Z,77.23
2022-11-02T01:54:29.034Z,77.29
2022-11-02T01:57:01.220Z,77.38
2022-11-02T01:59:37.004Z,77.30
2022-11-02T02:02:09.637Z,77.41
2022-11-02T02:04:37.979Z,77.57
2022-11-02T02:07:05.856Z,77.77
2022-11-02T02:09:34.353Z,78.02
2022-11-02T02:12:02.363Z,78.15
2022-11-02T02:14:30.187Z,77.82
2022-11-02T02:17:36.257Z,77.78
2022-11-02T02:20:36.877Z,77.31
2022-11-02T02:23:55.160Z,77.07
2022-11-02T02:26:37.493Z,76.84
2022-11-02T02:29:24.565Z,76.52
2022-11-02T02:32:16.312Z,76.27
2022-11-02T02:34:54.682Z,76.23
2022-11-02T02:37:53.518Z,76.09
2022-11-02T02:40:26.494Z,76.19
2022-11-02T02:43:01.348Z,75.83
2022-11-02T02:45:59.173Z,75.89
2022-11-02T02:48:28.222Z,76.15
2022-11-02T02:51:03.846Z,76.11
2022-11-02T02:53:50.581Z,76.24
2022-11-02T02:56:21.947Z,77.05
2022-11-02T02:59:00.558Z,77.46
2022-11-02T03:01:28.775Z,77.80
2022-11-02T03:03:56.495Z,78.21
2022-11-02T03:06:33.870Z,78.57
2022-11-02T03:09:20.520Z,78.94
2022-11-02T03:12:06.101Z,79.19
2022-11-02T03:15:13.473Z,79.21
2022-11-02T03:18:25.620Z,79.26
2022-11-02T03:21:42.382Z,79.40
2022-11-02T03:24:17.048Z,79.51
2022-11-02T03:27:13.258Z,79.47
2022-11-02T03:30:16.896Z,79.54
2022-11-02T03:33:07.909Z,79.69
2022-11-02T03:35:52.237Z,79.90
2022-11-02T03:38:54.471Z,79.61
2022-11-02T03:41:24.622Z,79.46
2022-11-02T03:43:57.710Z,79.25
2022-11-02T03:46:27.493Z,79.14
2022-11-02T03:48:56.594Z,79.18
2022-11-02T03:51:26.634Z,79.14
2022-11-02T03:54:07.733Z,79.15
2022-11-02T03:56:41.602Z,79.37
2022-11-02T03:59:09.313Z,79.43
2022-11-02T04:01:42.810Z,79.42
2022-11-02T04:04:11.335Z,79.36
2022-11-02T04:06:41.925Z,79.39
2022-11-02T04:09:11.615Z,79.17
2022-11-02T04:11:58.188Z,79.25
2022-11-02T04:14:40.884Z,79.27
2022-11-02T04:19:59.053Z,78.92
2022-11-02T04:22:44.883Z,78.90
2022-11-02T04:25:20.044Z,78.98
2022-11-02T04:28:09.329Z,79.12
2022-11-02T04:30:41.468Z,79.23
2022-11-02T04:33:27.726Z,79.34
2022-11-02T04:36:00.951Z,79.63
2022-11-02T04:38:42.126Z,79.66
2022-11-02T04:41:33.721Z,79.63
2022-11-02T04:44:01.927Z,79.49
2022-11-02T04:46:33.866Z,79.53
2022-11-02T04:49:01.866Z,79.27
2022-11-02T04:51:31.391Z,79.18
2022-11-02T04:53:59.488Z,79.38
2022-11-02T04:56:29.033Z,79.45
2022-11-02T04:58:59.287Z,79.63
2022-11-02T05:01:29.645Z,79.40
2022-11-02T05:03:58.926Z,79.02
2022-11-02T05:06:27.546Z,78.98
2022-11-02T05:08:55.577Z,79.13
2022-11-02T05:11:24.032Z,79.02
2022-11-02T05:13:51.910Z,78.82
2022-11-02T05:16:19.560Z,78.88
2022-11-02T05:18:48.758Z,79.20
2022-11-02T05:21:16.701Z,79.50
2022-11-02T05:23:44.811Z,79.81
2022-11-02T05:26:12.562Z,79.84
2022-11-02T05:28:41.734Z,80.08
2022-11-02T05:31:09.858Z,80.12
2022-11-02T05:33:37.575Z,80.45
2022-11-02T05:36:07.435Z,80.60
2022-11-02T05:38:36.281Z,80.93
2022-11-02T05:41:04.026Z,80.88
2022-11-02T05:43:33.514Z,80.87
2022-11-02T05:46:03.529Z,80.86
2022-11-02T05:48:33.271Z,81.10
2022-11-02T05:51:03.322Z,81.04
2022-11-02T05:53:33.341Z,80.95
2022-11-02T05:56:03.367Z,80.91
2022-11-02T05:58:32.418Z,80.70
2022-11-02T06:01:02.761Z,80.49
2022-11-02T06:03:31.547Z,80.50
2022-11-02T06:06:02.823Z,80.66
2022-11-02T06:08:38.955Z,80.26
2022-11-02T06:11:09.753Z,80.00
2022-11-02T06:13:37.404Z,79.78
2022-11-02T06:16:09.714Z,79.99
2022-11-02T06:18:39.188Z,80.14
2022-11-02T06:21:07.461Z,80.24
2022-11-02T06:23:35.742Z,80.14
2022-11-02T06:26:03.657Z,80.43
2022-11-02T06:28:31.510Z,80.38
2022-11-02T06:30:59.163Z,80.71
2022-11-02T06:33:27.132Z,80.65
2022-11-02T06:35:55.382Z,80.72
2022-11-02T06:38:23.728Z,80.90
2022-11-02T06:41:02.587Z,81.03
2022-11-02T06:43:30.567Z,81.17
2022-11-02T06:45:58.588Z,81.26
2022-11-02T06:48:34.201Z,81.41
2022-11-02T06:50:57.739Z,81.39
2022-11-02T06:53:25.932Z,81.85
2022-11-02T06:55:55.874Z,82.04
2022-11-02T06:58:24.127Z,82.14
2022-11-02T07:01:01.523Z,82.19
2022-11-02T07:03:30.532Z,82.29
2022-11-02T07:05:58.993Z,82.28
2022-11-02T07:08:29.033Z,82.18
2022-11-02T07:10:57.531Z,82.04
2022-11-02T07:13:25.146Z,82.42
2022-11-02T07:15:54.248Z,82.36
2022-11-02T07:18:22.910Z,82.25
2022-11-02T07:20:50.585Z,82.50
2022-11-02T07:23:18.222Z,82.55
2022-11-02T07:25:45.799Z,82.32
2022-11-02T07:28:13.778Z,82.22
2022-11-02T07:30:41.627Z,82.16
2022-11-02T07:33:09.281Z,82.44
2022-11-02T07:35:37.226Z,82.49
2022-11-02T07:38:07.369Z,82.54
2022-11-02T07:40:36.084Z,82.67
2022-11-02T07:43:05.324Z,82.61
2022-11-02T07:45:34.934Z,82.96
2022-11-02T07:48:02.480Z,82.93
2022-11-02T07:50:29.929Z,83.24
2022-11-02T07:52:58.697Z,83.75
2022-11-02T07:55:29.872Z,84.05
2022-11-02T07:58:03.896Z,84.07
2022-11-02T08:00:34.956Z,84.39
2022-11-02T08:03:04.923Z,84.35
2022-11-02T08:05:38.905Z,84.22
2022-11-02T08:08:11.156Z,83.95
2022-11-02T08:10:40.412Z,84.12
2022-11-02T08:13:15.279Z,84.17
2022-11-02T08:15:42.945Z,84.40
2022-11-02T08:18:19.969Z,84.35
2022-11-02T08:20:48.281Z,84.32
2022-11-02T08:23:18.517Z,84.34
2022-11-02T08:25:47.562Z,84.49
2022-11-02T08:28:19.404Z,84.37
2022-11-02T08:30:47.252Z,84.70
2022-11-02T08:33:16.763Z,84.61
2022-11-02T08:35:46.170Z,84.49
2022-11-02T08:38:14.842Z,84.65
2022-11-02T08:40:42.947Z,84.89
2022-11-02T08:43:13.684Z,84.66
2022-11-02T08:48:14.877Z,84.78
2022-11-02T08:50:42.189Z,84.86
2022-11-02T08:53:10.005Z,84.62
2022-11-02T08:55:37.461Z,84.43
2022-11-02T08:58:05.299Z,84.54
2022-11-02T09:00:34.597Z,84.41
2022-11-02T09:03:09.150Z,84.27
2022-11-02T09:05:40.276Z,84.56
2022-11-02T09:08:12.289Z,84.77
2022-11-02T09:10:40.121Z,85.07
2022-11-02T09:13:11.490Z,85.36
2022-11-02T09:15:39.927Z,85.37
2022-11-02T09:18:09.907Z,85.76
2022-11-02T09:20:37.519Z,85.44
2022-11-02T09:23:04.883Z,85.43
2022-11-02T09:25:32.565Z,85.48
2022-11-02T09:28:00.244Z,85.46
2022-11-02T09:30:29.886Z,85.49
2022-11-02T09:33:06.559Z,85.47
2022-11-02T09:35:38.929Z,85.72
2022-11-02T09:38:07.038Z,85.85
2022-11-02T09:40:42.555Z,85.88
2022-11-02T09:43:29.460Z,85.84
2022-11-02T09:46:03.259Z,86.27
2022-11-02T09:48:44.818Z,86.23
2022-11-02T09:51:35.655Z,86.47
2022-11-02T09:54:17.942Z,86.58
2022-11-02T09:56:46.889Z,86.57
2022-11-02T09:59:21.951Z,86.69
2022-11-02T10:02:20.889Z,87.02
2022-11-02T10:05:09.252Z,86.73
2022-11-02T10:08:01.053Z,86.72
2022-11-02T10:10:52.025Z,86.55
2022-11-02T10:13:25.052Z,86.17
2022-11-02T10:16:01.198Z,86.01
2022-11-02T10:18:30.102Z,86.24
2022-11-02T10:21:02.891Z,86.26
2022-11-02T10:23:35.500Z,85.96
2022-11-02T10:26:04.323Z,85.91
2022-11-02T10:28:38.811Z,85.41
2022-11-02T10:31:15.830Z,85.22
2022-11-02T10:33:43.554Z,85.24
2022-11-02T10:36:31.337Z,84.99
2022-11-02T10:39:24.205Z,85.31
2022-11-02T10:42:18.564Z,84.92
2022-11-02T10:45:21.563Z,84.99
2022-11-02T10:48:20.071Z,85.18
2022-11-02T10:50:55.227Z,85.48
2022-11-02T10:56:13.066Z,85.53
2022-11-02T10:58:45.814Z,85.52
2022-11-02T11:01:13.805Z,85.56
2022-11-02T11:04:06.773Z,86.08
2022-11-02T11:06:42.771Z,86.17
2022-11-02T11:09:23.653Z,86.41
2022-11-02T11:12:21.695Z,86.60
2022-11-02T11:20:27.755Z,87.06
2022-11-02T11:23:22.426Z,87.19
2022-11-02T11:26:10.706Z,87.48
2022-11-02T11:28:56.473Z,87.62
2022-11-02T11:31:25.115Z,87.35
2022-11-02T11:33:56.083Z,87.30
2022-11-02T11:36:31.106Z,86.96
2022-11-02T11:39:07.111Z,87.15
2022-11-02T11:41:39.541Z,86.96
2022-11-02T11:44:11.688Z,87.26
2022-11-02T11:46:45.762Z,87.06
2022-11-02T11:50:02.934Z,86.86
2022-11-02T11:52:03.867Z,86.64
2022-11-02T11:54:33.305Z,86.56
2022-11-02T11:57:27.688Z,86.44
2022-11-02T11:59:57.918Z,86.70
2022-11-02T12:02:35.683Z,86.69
2022-11-02T12:05:16.373Z,86.56
2022-11-02T12:08:10.399Z,86.51
2022-11-02T12:10:46.276Z,86.54
2022-11-02T12:13:45.415Z,86.37
2022-11-02T12:16:36.624Z,86.35
2022-11-02T12:19:33.006Z,86.27
2022-11-02T12:22:05.124Z,86.16
2022-11-02T12:25:25.332Z,86.24
2022-11-02T12:28:08.659Z,86.00
2022-11-02T12:30:44.022Z,85.61
2022-11-02T12:33:38.479Z,85.28
2022-11-02T12:36:32.711Z,85.32
2022-11-02T12:39:11.658Z,85.06
2022-11-02T12:42:02.275Z,84.99
2022-11-02T12:45:21.191Z,84.59
2022-11-02T12:48:00.929Z,84.62
2022-11-02T12:50:55.123Z,84.71
2022-11-02T12:53:46.399Z,84.72
2022-11-02T12:56:34.450Z,84.44
2022-11-02T12:59:02.348Z,84.52
2022-11-02T13:01:40.324Z,84.04
2022-11-02T13:04:30.311Z,83.86
2022-11-02T13:07:03.725Z,83.48
2022-11-02T13:09:58.963Z,83.18
2022-11-02T13:12:27.682Z,83.26
2022-11-02T13:14:57.756Z,83.19
2022-11-02T13:17:44.899Z,83.46
2022-11-02T13:20:29.434Z,83.75
2022-11-02T13:23:36.045Z,83.90
2022-11-02T13:26:21.370Z,84.01
2022-11-02T13:28:53.904Z,84.55
2022-11-02T13:31:29.347Z,84.45
2022-11-02T13:34:01.576Z,84.68
2022-11-02T13:36:29.235Z,84.57
2022-11-02T13:39:02.617Z,84.66
2022-11-02T13:42:07.585Z,84.71
2022-11-02T13:44:43.416Z,84.70
2022-11-02T13:47:57.730Z,84.82
2022-11-02T13:50:28.271Z,84.62
2022-11-02T13:53:04.603Z,84.45
2022-11-02T13:55:46.115Z,84.32
2022-11-02T13:58:24.482Z,84.15
2022-11-02T14:00:56.491Z,84.14
2022-11-02T14:03:50.898Z,84.35
2022-11-02T14:06:20.396Z,84.33
2022-11-02T14:09:04.846Z,84.12
2022-11-02T14:11:43.358Z,83.98
2022-11-02T14:14:21.600Z,83.86
2022-11-02T14:16:55.401Z,83.62
2022-11-02T14:19:51.961Z,83.40
2022-11-02T14:22:20.560Z,83.31
2022-11-02T14:24:53.927Z,83.14
2022-11-02T14:27:26.993Z,83.12
2022-11-02T14:29:55.676Z,83.15
2022-11-02T14:32:43.153Z,83.11
2022-11-02T14:35:28.284Z,83.19
2022-11-02T14:38:25.343Z,83.17
2022-11-02T14:41:07.464Z,83.06
2022-11-02T14:44:01.873Z,83.30
2022-11-02T14:46:59.515Z,83.28
2022-11-02T14:49:34.877Z,83.27
2022-11-02T14:52:16.952Z,82.49
2022-11-02T14:55:20.237Z,82.69
2022-11-02T14:57:59.240Z,82.75
2022-11-02T15:00:50.187Z,82.88
2022-11-02T15:03:34.877Z,82.80
2022-11-02T15:06:13.688Z,82.67
2022-11-02T15:09:00.641Z,82.47
2022-11-02T15:11:51.612Z,82.33
2022-11-02T15:14:42.685Z,82.20
2022-11-02T15:17:18.950Z,82.14
2022-11-02T15:19:52.371Z,82.12
2022-11-02T15:22:45.715Z,82.07
2022-11-02T15:25:27.465Z,82.08
2022-11-02T15:28:09.268Z,82.12
2022-11-02T15:30:47.115Z,82.07
2022-11-02T15:33:31.590Z,81.95
2022-11-02T15:36:01.186Z,81.90
2022-11-02T15:38:35.234Z,81.79
2022-11-02T15:41:35.351Z,81.93
2022-11-02T15:44:36.194Z,81.96
2022-11-02T15:47:48.016Z,82.04
2022-11-02T15:50:26.552Z,82.15
2022-11-02T15:53:34.924Z,82.28
2022-11-02T15:56:10.444Z,82.29
2022-11-02T15:59:18.715Z,82.25
2022-11-02T16:01:48.356Z,82.11
2022-11-02T16:04:21.113Z,82.04
2022-11-02T16:06:49.362Z,82.09
2022-11-02T16:09:35.736Z,81.74
2022-11-02T16:12:23.191Z,81.63
2022-11-02T16:15:14.373Z,81.56
2022-11-02T16:17:42.101Z,81.49
2022-11-02T16:20:19.805Z,81.28
2022-11-02T16:22:57.874Z,81.22
2022-11-02T16:25:45.597Z,81.14
2022-11-02T16:28:31.976Z,81.28
2022-11-02T16:31:18.489Z,81.24
2022-11-02T16:33:55.620Z,81.28
2022-11-02T16:36:33.076Z,81.34
2022-11-02T16:39:07.570Z,81.41
2022-11-02T16:41:36.434Z,81.41
2022-11-02T16:44:14.872Z,81.41
2022-11-02T16:46:49.985Z,81.43
2022-11-02T16:49:23.820Z,81.60
2022-11-02T16:52:02.549Z,82.11
2022-11-02T16:54:40.297Z,82.31
2022-11-02T16:57:24.738Z,82.29
2022-11-02T16:59:59.618Z,81.91
2022-11-02T17:02:42.524Z,81.89
2022-11-02T17:05:21.519Z,82.29
2022-11-02T17:08:04.632Z,82.18
2022-11-02T17:10:35.774Z,82.46
2022-11-02T17:13:06.781Z,82.33
2022-11-02T17:15:36.448Z,82.21
2022-11-02T17:18:27.267Z,81.93
2022-11-02T17:21:21.646Z,81.85
2022-11-02T17:23:49.641Z,81.81
2022-11-02T17:26:28.524Z,82.17
2022-11-02T17:29:01.855Z,82.39
2022-11-02T17:31:37.506Z,82.73
2022-11-02T17:34:15.278Z,83.02
2022-11-02T17:36:48.415Z,83.04
2022-11-02T17:39:18.137Z,83.17
2022-11-02T17:42:13.094Z,83.19
2022-11-02T17:44:41.269Z,83.55
2022-11-02T17:47:14.136Z,83.65
2022-11-02T17:49:41.615Z,83.78
2022-11-02T17:52:15.804Z,83.96
2022-11-02T17:54:43.194Z,83.91
2022-11-02T17:57:14.815Z,84.08
2022-11-02T17:59:42.316Z,84.15
2022-11-02T18:02:15.459Z,84.17
2022-11-02T18:07:11.753Z,84.28
2022-11-02T18:09:39.959Z,84.29
2022-11-02T18:12:14.499Z,84.23
2022-11-02T18:14:41.998Z,84.33
2022-11-02T18:17:09.681Z,84.18
2022-11-02T18:19:37.124Z,84.32
2022-11-02T18:22:04.651Z,84.29
2022-11-02T18:24:32.023Z,84.40
2022-11-02T18:26:59.545Z,84.48
2022-11-02T18:29:27.043Z,84.56
2022-11-02T18:31:54.287Z,84.65
2022-11-02T18:34:21.757Z,84.70
2022-11-02T18:36:49.313Z,84.71
2022-11-02T18:39:16.831Z,84.67
2022-11-02T18:41:44.193Z,84.73
2022-11-02T18:44:15.486Z,84.70
2022-11-02T18:46:42.173Z,84.73
2022-11-02T18:49:09.744Z,84.63
2022-11-02T18:51:37.289Z,84.79
2022-11-02T18:54:06.050Z,84.92
2022-11-02T18:56:34.071Z,84.92
2022-11-02T18:59:01.609Z,84.67
2022-11-02T19:01:29.542Z,84.31
2022-11-02T19:03:59.835Z,84.23
2022-11-02T19:06:49.823Z,84.02
2022-11-02T19:09:21.010Z,83.90
2022-11-02T19:12:04.993Z,83.81
2022-11-02T19:14:38.549Z,83.80
2022-11-02T19:17:07.544Z,84.03
2022-11-02T19:19:35.895Z,83.92
2022-11-02T19:22:03.905Z,83.97
2022-11-02T19:24:31.356Z,83.94
2022-11-02T19:26:59.018Z,84.01
2022-11-02T19:29:26.611Z,84.08
2022-11-02T19:31:53.923Z,84.10
2022-11-02T19:34:22.590Z,84.19
2022-11-02T19:36:50.160Z,84.25
2022-11-02T19:39:17.716Z,84.32
2022-11-02T19:41:46.935Z,84.40
2022-11-02T19:44:14.182Z,84.56
2022-11-02T19:49:09.081Z,84.68
2022-11-02T19:51:36.599Z,84.79
2022-11-02T19:54:04.756Z,84.80
2022-11-02T19:56:35.218Z,84.83
2022-11-02T19:59:04.400Z,84.81
2022-11-02T20:01:36.373Z,84.84
2022-11-02T20:04:04.521Z,84.71
2022-11-02T20:06:36.034Z,84.69
2022-11-02T20:09:06.325Z,84.58
2022-11-02T20:11:35.521Z,84.30
2022-11-02T20:14:04.883Z,84.35
2022-11-02T20:16:32.468Z,84.34
2022-11-02T20:19:00.338Z,84.32
2022-11-02T20:21:34.602Z,84.35
2022-11-02T20:24:00.486Z,84.50
2022-11-02T20:26:36.430Z,84.56
2022-11-02T20:29:05.805Z,84.60
2022-11-02T20:31:39.956Z,84.71
2022-11-02T20:34:08.823Z,84.84
2022-11-02T20:36:36.343Z,84.97
2022-11-02T20:39:05.121Z,85.01
2022-11-02T20:41:33.188Z,85.04
2022-11-02T20:44:01.220Z,85.11
2022-11-02T20:46:37.698Z,85.22
2022-11-02T20:49:08.516Z,85.36
2022-11-02T20:51:29.764Z,85.41
2022-11-02T20:53:57.612Z,85.37
2022-11-02T20:56:25.187Z,85.23
2022-11-02T20:58:55.631Z,84.98
2022-11-02T21:01:22.096Z,85.12
2022-11-02T21:03:49.888Z,85.24
2022-11-02T21:06:17.500Z,85.10
2022-11-02T21:08:44.857Z,85.13
2022-11-02T21:11:30.486Z,85.28
2022-11-02T21:13:57.797Z,85.24
2022-11-02T21:16:25.416Z,85.26
2022-11-02T21:18:52.736Z,85.38
2022-11-02T21:21:21.511Z,85.49
2022-11-02T21:23:49.053Z,85.58
2022-11-02T21:26:16.908Z,85.73
2022-11-02T21:28:45.675Z,85.92
2022-11-02T21:31:21.123Z,86.14
2022-11-02T21:33:49.707Z,86.14
2022-11-02T21:36:18.354Z,86.19
2022-11-02T21:38:48.153Z,86.27
2022-11-02T21:41:24.043Z,86.29
2022-11-02T21:43:52.083Z,86.41
2022-11-02T21:46:20.049Z,86.42
2022-11-02T21:48:48.091Z,86.45
2022-11-02T21:51:19.999Z,86.44
2022-11-02T21:53:49.456Z,86.39
2022-11-02T21:56:20.560Z,86.42
2022-11-02T21:58:48.963Z,86.24
2022-11-02T22:01:42.481Z,86.11
2022-11-02T22:04:13.550Z,85.93
2022-11-02T22:06:41.967Z,85.90
2022-11-02T22:09:12.381Z,85.80
2022-11-02T22:11:40.571Z,85.78
2022-11-02T22:14:08.237Z,85.67
2022-11-02T22:16:39.576Z,85.57
2022-11-02T22:19:13.782Z,85.44
2022-11-02T22:21:45.600Z,85.34
2022-11-02T22:24:13.253Z,85.27
2022-11-02T22:26:41.069Z,85.37
2022-11-02T22:29:08.959Z,85.41
2022-11-02T22:31:39.804Z,85.44
2022-11-02T22:34:10.028Z,85.48
2022-11-02T22:36:40.497Z,85.44
2022-11-02T22:39:12.202Z,85.53
2022-11-02T22:41:47.978Z,85.45
2022-11-02T22:44:18.602Z,85.57
2022-11-02T22:46:49.192Z,85.53
2022-11-02T22:49:19.361Z,85.69
2022-11-02T22:51:49.985Z,85.74
2022-11-02T22:54:19.511Z,85.88
2022-11-02T22:56:49.120Z,86.02
2022-11-02T22:59:16.707Z,86.08
2022-11-02T23:01:44.802Z,85.81
2022-11-02T23:04:13.036Z,85.85
2022-11-02T23:06:40.417Z,85.86
2022-11-02T23:09:10.634Z,85.80
2022-11-02T23:11:38.409Z,85.79
2022-11-02T23:14:12.765Z,85.76
2022-11-02T23:16:48.769Z,85.62
2022-11-02T23:19:30.532Z,85.40
2022-11-02T23:22:16.043Z,85.35
2022-11-02T23:25:09.096Z,85.32
2022-11-02T23:28:16.069Z,85.28
2022-11-02T23:31:02.652Z,85.27
2022-11-02T23:33:32.732Z,85.25
2022-11-02T23:36:11.763Z,85.19
2022-11-02T23:39:02.613Z,85.29
2022-11-02T23:41:32.670Z,85.48
2022-11-02T23:44:13.296Z,85.31
2022-11-02T23:46:44.614Z,85.47
2022-11-02T23:49:13.388Z,85.59
2022-11-02T23:51:59.390Z,85.75
2022-11-02T23:54:45.508Z,86.07
2022-11-02T23:57:13.274Z,86.30
2022-11-02T23:59:40.742Z,86.85
